createdAt,value
2022-08-29T00:00:41.898Z,101264.69
2022-08-29T00:03:13.270Z,101263.81
2022-08-29T00:05:45.230Z,101254.81
2022-08-29T00:08:21.837Z,101253.94
2022-08-29T00:10:53.733Z,101250.44
2022-08-29T00:13:25.058Z,101249.44
2022-08-29T00:15:56.412Z,101262.88
2022-08-29T00:18:27.726Z,101248.50
2022-08-29T00:20:59.041Z,101257.38
2022-08-29T00:23:30.557Z,101257.31
2022-08-29T00:26:01.956Z,101261.81
2022-08-29T00:28:33.503Z,101262.00
2022-08-29T00:31:04.877Z,101259.50
2022-08-29T00:33:39.304Z,101252.44
2022-08-29T00:36:11.289Z,101257.81
2022-08-29T00:38:42.665Z,101257.88
2022-08-29T00:41:14.846Z,101251.56
2022-08-29T00:43:46.557Z,101239.50
2022-08-29T00:46:42.572Z,101258.94
2022-08-29T00:49:32.263Z,101249.13
2022-08-29T00:52:10.976Z,101250.94
2022-08-29T00:54:45.456Z,101257.06
2022-08-29T00:57:20.062Z,101244.69
2022-08-29T00:59:51.806Z,101248.19
2022-08-29T01:02:23.722Z,101244.69
2022-08-29T01:04:55.562Z,101264.19
2022-08-29T01:07:27.279Z,101261.56
2022-08-29T01:09:58.586Z,101266.28
2022-08-29T01:12:30.725Z,101268.91
2022-08-29T01:15:06.866Z,101270.72
2022-08-29T01:17:44.115Z,101263.78
2022-08-29T01:20:35.394Z,101256.44
2022-08-29T01:23:20.724Z,101268.03
2022-08-29T01:25:52.803Z,101264.53
2022-08-29T01:28:40.283Z,101264.44
2022-08-29T01:31:37.242Z,101267.00
2022-08-29T01:34:09.388Z,101270.59
2022-08-29T01:36:53.504Z,101273.34
2022-08-29T01:39:28.315Z,101263.59
2022-08-29T01:42:02.321Z,101265.41
2022-08-29T01:44:33.646Z,101263.78
2022-08-29T01:47:06.512Z,101258.25
2022-08-29T01:49:40.569Z,101261.84
2022-08-29T01:52:12.754Z,101259.06
2022-08-29T01:54:45.166Z,101244.81
2022-08-29T01:57:17.496Z,101261.69
2022-08-29T01:59:49.172Z,101272.47
2022-08-29T02:02:24.431Z,101257.31
2022-08-29T02:04:58.534Z,101259.94
2022-08-29T02:07:29.902Z,101269.69
2022-08-29T02:10:01.327Z,101261.69
2022-08-29T02:12:32.890Z,101261.69
2022-08-29T02:15:06.069Z,101252.69
2022-08-29T02:17:38.448Z,101267.94
2022-08-29T02:20:10.626Z,101255.56
2022-08-29T02:22:42.540Z,101252.94
2022-08-29T02:25:32.745Z,101253.00
2022-08-29T02:28:04.381Z,101260.00
2022-08-29T02:30:35.938Z,101244.94
2022-08-29T02:33:08.798Z,101248.25
2022-08-29T02:35:42.873Z,101254.44
2022-08-29T02:38:15.708Z,101253.56
2022-08-29T02:40:49.050Z,101258.94
2022-08-29T02:43:21.420Z,101257.19
2022-08-29T02:45:53.675Z,101257.19
2022-08-29T02:48:25.106Z,101264.31
2022-08-29T02:50:59.051Z,101256.38
2022-08-29T02:53:31.601Z,101254.75
2022-08-29T02:56:03.313Z,101257.59
2022-08-29T02:58:34.922Z,101261.22
2022-08-29T03:01:06.415Z,101262.03
2022-08-29T03:03:37.902Z,101268.28
2022-08-29T03:06:09.804Z,101263.03
2022-08-29T03:08:41.241Z,101276.34
2022-08-29T03:11:12.602Z,101266.66
2022-08-29T03:13:45.366Z,101266.41
2022-08-29T03:16:18.175Z,101268.16
2022-08-29T03:18:49.546Z,101265.59
2022-08-29T03:21:25.130Z,101252.28
2022-08-29T03:23:56.663Z,101262.91
2022-08-29T03:26:28.039Z,101251.53
2022-08-29T03:28:59.325Z,101268.28
2022-08-29T03:31:30.719Z,101268.28
2022-08-29T03:34:02.069Z,101256.66
2022-08-29T03:36:33.697Z,101259.41
2022-08-29T03:39:05.002Z,101263.16
2022-08-29T03:41:36.384Z,101244.66
2022-08-29T03:44:07.694Z,101263.28
2022-08-29T03:46:39.456Z,101257.16
2022-08-29T03:49:10.997Z,101260.94
2022-08-29T03:51:42.449Z,101256.69
2022-08-29T03:54:13.744Z,101255.06
2022-08-29T03:56:46.066Z,101259.31
2022-08-29T03:59:18.288Z,101252.09
2022-08-29T04:01:50.801Z,101264.50
2022-08-29T04:04:40.911Z,101268.06
2022-08-29T04:07:14.651Z,101258.28
2022-08-29T04:09:46.132Z,101265.50
2022-08-29T04:12:17.630Z,101268.25
2022-08-29T04:14:48.988Z,101270.31
2022-08-29T04:17:20.292Z,101271.34
2022-08-29T04:19:51.601Z,101274.09
2022-08-29T04:22:22.904Z,101285.72
2022-08-29T04:24:54.209Z,101284.78
2022-08-29T04:27:25.545Z,101282.09
2022-08-29T04:29:56.938Z,101282.91
2022-08-29T04:32:28.286Z,101277.38
2022-08-29T04:34:59.841Z,101278.34
2022-08-29T04:37:31.400Z,101284.47
2022-08-29T04:40:03.211Z,101287.16
2022-08-29T04:42:38.569Z,101267.84
2022-08-29T04:45:14.538Z,101282.72
2022-08-29T04:47:46.269Z,101281.03
2022-08-29T04:50:22.326Z,101284.06
2022-08-29T04:52:53.555Z,101287.00
2022-08-29T04:55:25.820Z,101286.28
2022-08-29T04:57:57.311Z,101293.50
2022-08-29T05:00:30.426Z,101291.66
2022-08-29T05:03:02.441Z,101286.28
2022-08-29T05:05:33.838Z,101290.78
2022-08-29T05:08:05.136Z,101294.34
2022-08-29T05:10:37.225Z,101306.00
2022-08-29T05:13:08.561Z,101303.31
2022-08-29T05:15:40.073Z,101308.56
2022-08-29T05:18:13.348Z,101307.66
2022-08-29T05:20:47.636Z,101291.75
2022-08-29T05:23:19.095Z,101300.53
2022-08-29T05:25:56.846Z,101307.44
2022-08-29T05:28:30.354Z,101302.00
2022-08-29T05:31:02.001Z,101312.44
2022-08-29T05:33:33.486Z,101318.44
2022-08-29T05:36:05.895Z,101325.50
2022-08-29T05:38:37.444Z,101315.94
2022-08-29T05:41:09.020Z,101340.56
2022-08-29T05:43:40.338Z,101330.00
2022-08-29T05:46:11.848Z,101333.22
2022-08-29T05:48:43.225Z,101339.25
2022-08-29T05:51:16.350Z,101340.81
2022-08-29T05:53:48.312Z,101338.13
2022-08-29T05:56:25.789Z,101342.44
2022-08-29T05:58:57.174Z,101345.94
2022-08-29T06:01:32.775Z,101340.28
2022-08-29T06:04:04.570Z,101340.91
2022-08-29T06:06:36.112Z,101339.75
2022-08-29T06:09:08.674Z,101343.94
2022-08-29T06:11:40.470Z,101350.75
2022-08-29T06:14:13.684Z,101351.44
2022-08-29T06:16:45.196Z,101352.19
2022-08-29T06:19:16.925Z,101352.19
2022-08-29T06:21:48.742Z,101345.66
2022-08-29T06:24:20.084Z,101341.91
2022-08-29T06:26:51.412Z,101365.44
2022-08-29T06:29:22.920Z,101350.69
2022-08-29T06:31:57.952Z,101337.78
2022-08-29T06:34:30.222Z,101344.59
2022-08-29T06:37:01.527Z,101351.66
2022-08-29T06:39:32.913Z,101344.38
2022-08-29T06:42:04.355Z,101352.25
2022-08-29T06:44:35.800Z,101349.09
2022-08-29T06:47:07.089Z,101352.47
2022-08-29T06:49:38.389Z,101339.63
2022-08-29T06:52:09.740Z,101344.56
2022-08-29T06:54:41.028Z,101355.53
2022-08-29T06:57:12.378Z,101360.38
2022-08-29T06:59:43.710Z,101353.78
2022-08-29T07:02:15.062Z,101355.69
2022-08-29T07:04:46.397Z,101370.28
2022-08-29T07:07:17.798Z,101373.34
2022-08-29T07:09:49.154Z,101369.66
2022-08-29T07:12:20.458Z,101371.38
2022-08-29T07:14:55.714Z,101374.72
2022-08-29T07:17:28.119Z,101377.00
2022-08-29T07:19:59.533Z,101372.03
2022-08-29T07:22:34.572Z,101377.91
2022-08-29T07:25:07.287Z,101381.19
2022-08-29T07:27:38.634Z,101378.63
2022-08-29T07:30:10.746Z,101397.75
2022-08-29T07:32:45.983Z,101387.34
2022-08-29T07:35:29.564Z,101386.53
2022-08-29T07:38:02.132Z,101386.53
2022-08-29T07:40:33.497Z,101388.13
2022-08-29T07:43:05.735Z,101393.69
2022-08-29T07:45:38.962Z,101387.72
2022-08-29T07:48:10.344Z,101389.63
2022-08-29T07:50:42.612Z,101393.84
2022-08-29T07:53:14.642Z,101385.44
2022-08-29T07:55:46.700Z,101368.59
2022-08-29T07:58:18.075Z,101383.84
2022-08-29T08:00:49.427Z,101382.91
2022-08-29T08:03:21.642Z,101390.63
2022-08-29T08:05:53.461Z,101387.22
2022-08-29T08:08:24.828Z,101379.16
2022-08-29T08:10:56.130Z,101398.53
2022-08-29T08:13:28.609Z,101389.63
2022-08-29T08:16:04.642Z,101383.34
2022-08-29T08:18:37.644Z,101391.00
2022-08-29T08:21:09.766Z,101389.56
2022-08-29T08:23:42.216Z,101397.13
2022-08-29T08:26:14.395Z,101395.53
2022-08-29T08:28:46.223Z,101394.25
2022-08-29T08:31:18.434Z,101392.34
2022-08-29T08:33:50.156Z,101388.28
2022-08-29T08:36:30.836Z,101407.75
2022-08-29T08:39:02.164Z,101399.72
2022-08-29T08:41:33.448Z,101413.94
2022-08-29T08:44:12.442Z,101395.97
2022-08-29T08:46:47.734Z,101401.75
2022-08-29T08:49:21.756Z,101412.31
2022-08-29T08:51:58.760Z,101417.03
2022-08-29T08:54:34.869Z,101402.16
2022-08-29T08:57:13.017Z,101406.34
2022-08-29T08:59:50.138Z,101409.50
2022-08-29T09:02:51.274Z,101409.94
2022-08-29T09:05:48.571Z,101416.06
2022-08-29T09:09:00.323Z,101412.72
2022-08-29T09:11:51.274Z,101417.66
2022-08-29T09:14:33.583Z,101419.84
2022-08-29T09:17:12.325Z,101413.09
2022-08-29T09:19:44.765Z,101420.69
2022-08-29T09:22:32.836Z,101402.84
2022-08-29T09:25:06.674Z,101415.25
2022-08-29T09:27:38.684Z,101402.28
2022-08-29T09:30:20.429Z,101408.06
2022-08-29T09:33:01.527Z,101409.03
2022-08-29T09:35:47.241Z,101400.13
2022-08-29T09:38:18.487Z,101412.53
2022-08-29T09:40:55.667Z,101413.53
2022-08-29T09:43:39.098Z,101407.31
2022-08-29T09:46:10.426Z,101417.78
2022-08-29T09:48:44.741Z,101412.75
2022-08-29T09:51:31.478Z,101406.50
2022-08-29T09:54:25.857Z,101413.97
2022-08-29T09:57:03.078Z,101423.59
2022-08-29T09:59:37.775Z,101413.81
2022-08-29T10:02:25.639Z,101428.34
2022-08-29T10:05:01.874Z,101434.53
2022-08-29T10:07:47.428Z,101425.50
2022-08-29T10:10:25.373Z,101423.66
2022-08-29T10:13:08.191Z,101425.72
2022-08-29T10:15:55.666Z,101440.22
2022-08-29T10:18:44.601Z,101430.97
2022-08-29T10:21:32.482Z,101432.19
2022-08-29T10:24:15.860Z,101432.88
2022-08-29T10:27:20.915Z,101428.25
2022-08-29T10:30:01.676Z,101432.13
2022-08-29T10:32:44.471Z,101437.03
2022-08-29T10:35:29.715Z,101432.22
2022-08-29T10:38:42.712Z,101432.78
2022-08-29T10:41:38.864Z,101435.38
2022-08-29T10:44:10.195Z,101442.97
2022-08-29T10:46:53.294Z,101432.97
2022-08-29T10:49:32.022Z,101446.16
2022-08-29T10:52:18.244Z,101440.25
2022-08-29T10:55:14.854Z,101441.09
2022-08-29T10:57:51.314Z,101441.28
2022-08-29T11:00:25.432Z,101441.28
2022-08-29T11:03:15.528Z,101447.34
2022-08-29T11:05:57.490Z,101444.63
2022-08-29T11:08:35.506Z,101448.63
2022-08-29T11:11:06.840Z,101454.25
2022-08-29T11:13:46.522Z,101449.13
2022-08-29T11:16:44.054Z,101447.88
2022-08-29T11:19:45.755Z,101453.81
2022-08-29T11:22:25.683Z,101452.28
2022-08-29T11:25:10.384Z,101442.19
2022-08-29T11:27:44.961Z,101450.13
2022-08-29T11:30:43.677Z,101441.56
2022-08-29T11:33:38.201Z,101446.81
2022-08-29T11:36:42.016Z,101451.63
2022-08-29T11:39:48.703Z,101445.59
2022-08-29T11:45:35.682Z,101450.09
2022-08-29T11:48:08.961Z,101463.09
2022-08-29T11:50:40.308Z,101463.09
2022-08-29T11:53:21.433Z,101463.47
2022-08-29T11:56:14.538Z,101447.41
2022-08-29T11:58:50.340Z,101450.00
2022-08-29T12:01:24.366Z,101450.03
2022-08-29T12:03:57.099Z,101460.84
2022-08-29T12:06:56.787Z,101465.78
2022-08-29T12:09:51.053Z,101451.28
2022-08-29T12:12:39.769Z,101455.44
2022-08-29T12:15:29.885Z,101472.09
2022-08-29T12:18:22.603Z,101468.28
2022-08-29T12:20:55.643Z,101468.25
2022-08-29T12:23:36.480Z,101465.66
2022-08-29T12:26:42.890Z,101475.44
2022-08-29T12:29:41.273Z,101468.50
2022-08-29T12:32:40.066Z,101477.50
2022-08-29T12:35:54.978Z,101466.75
2022-08-29T12:38:42.225Z,101460.97
2022-08-29T12:41:30.716Z,101461.84
2022-08-29T12:44:08.816Z,101461.09
2022-08-29T12:46:44.385Z,101461.66
2022-08-29T12:49:29.495Z,101466.09
2022-08-29T12:52:06.290Z,101462.41
2022-08-29T12:54:41.882Z,101464.56
2022-08-29T12:57:22.628Z,101458.94
2022-08-29T12:59:56.266Z,101458.47
2022-08-29T13:02:34.960Z,101457.38
2022-08-29T13:05:29.217Z,101457.16
2022-08-29T13:08:13.480Z,101457.84
2022-08-29T13:10:54.838Z,101447.97
2022-08-29T13:13:27.488Z,101450.94
2022-08-29T13:16:01.412Z,101441.34
2022-08-29T13:18:44.340Z,101441.09
2022-08-29T13:21:28.133Z,101434.97
2022-08-29T13:24:03.570Z,101444.28
2022-08-29T13:26:39.929Z,101436.09
2022-08-29T13:29:29.758Z,101439.75
2022-08-29T13:32:17.323Z,101438.34
2022-08-29T13:35:07.521Z,101434.09
2022-08-29T13:37:41.248Z,101434.41
2022-08-29T13:40:36.552Z,101437.31
2022-08-29T13:43:30.476Z,101436.22
2022-08-29T13:46:18.242Z,101427.31
2022-08-29T13:48:59.239Z,101431.25
2022-08-29T13:51:30.690Z,101419.72
2022-08-29T13:54:01.988Z,101431.69
2022-08-29T13:56:33.556Z,101422.44
2022-08-29T13:59:05.160Z,101420.84
2022-08-29T14:04:38.155Z,101405.78
2022-08-29T14:07:16.169Z,101398.94
2022-08-29T14:09:48.474Z,101407.81
2022-08-29T14:12:21.420Z,101419.19
2022-08-29T14:15:09.711Z,101421.00
2022-08-29T14:17:41.679Z,101412.34
2022-08-29T14:20:14.381Z,101408.97
2022-08-29T14:22:47.051Z,101410.03
2022-08-29T14:25:20.158Z,101403.72
2022-08-29T14:27:51.618Z,101399.34
2022-08-29T14:30:24.676Z,101402.44
2022-08-29T14:32:56.096Z,101407.38
2022-08-29T14:35:31.865Z,101404.16
2022-08-29T14:38:05.225Z,101399.41
2022-08-29T14:40:41.783Z,101402.59
2022-08-29T14:43:14.297Z,101414.03
2022-08-29T14:45:45.626Z,101400.66
2022-08-29T14:48:17.667Z,101409.16
2022-08-29T14:50:49.029Z,101415.41
2022-08-29T14:53:20.348Z,101401.97
2022-08-29T14:55:52.361Z,101408.97
2022-08-29T14:58:23.920Z,101403.47
2022-08-29T15:00:56.298Z,101408.06
2022-08-29T15:03:27.627Z,101404.53
2022-08-29T15:05:58.964Z,101406.25
2022-08-29T15:08:30.967Z,101411.25
2022-08-29T15:11:02.344Z,101413.03
2022-08-29T15:13:33.654Z,101413.38
2022-08-29T15:16:05.243Z,101407.00
2022-08-29T15:19:24.789Z,101411.78
2022-08-29T15:21:29.374Z,101394.03
2022-08-29T15:24:00.743Z,101394.25
2022-08-29T15:26:32.186Z,101401.88
2022-08-29T15:29:04.009Z,101395.00
2022-08-29T15:31:35.711Z,101400.38
2022-08-29T15:34:07.151Z,101403.81
2022-08-29T15:36:38.531Z,101394.13
2022-08-29T15:39:10.365Z,101397.25
2022-08-29T15:41:41.747Z,101403.69
2022-08-29T15:44:13.387Z,101398.41
2022-08-29T15:46:50.446Z,101403.56
2022-08-29T15:49:25.046Z,101390.72
2022-08-29T15:51:57.287Z,101392.78
2022-08-29T15:54:28.656Z,101394.53
2022-08-29T15:57:00.345Z,101398.00
2022-08-29T15:59:56.415Z,101392.78
2022-08-29T16:02:23.163Z,101392.78
2022-08-29T16:04:57.018Z,101397.03
2022-08-29T16:07:29.612Z,101397.50
2022-08-29T16:10:03.637Z,101401.50
2022-08-29T16:12:37.275Z,101401.13
2022-08-29T16:15:10.057Z,101402.84
2022-08-29T16:17:41.600Z,101401.03
2022-08-29T16:20:12.956Z,101403.13
2022-08-29T16:22:44.591Z,101406.19
2022-08-29T16:25:16.673Z,101409.22
2022-08-29T16:27:48.485Z,101418.63
2022-08-29T16:30:20.624Z,101401.59
2022-08-29T16:32:51.999Z,101398.28
2022-08-29T16:35:23.931Z,101405.34
2022-08-29T16:38:02.857Z,101412.91
2022-08-29T16:40:34.973Z,101410.31
2022-08-29T16:43:06.339Z,101410.56
2022-08-29T16:45:38.174Z,101395.97
2022-08-29T16:48:15.689Z,101392.72
2022-08-29T16:50:48.929Z,101408.91
2022-08-29T16:53:20.650Z,101412.59
2022-08-29T16:55:52.101Z,101411.81
2022-08-29T16:58:42.287Z,101408.66
2022-08-29T17:01:13.622Z,101413.44
2022-08-29T17:03:45.043Z,101405.63
2022-08-29T17:06:16.347Z,101413.66
2022-08-29T17:08:47.644Z,101415.63
2022-08-29T17:11:19.936Z,101409.66
2022-08-29T17:13:51.939Z,101412.13
2022-08-29T17:16:23.805Z,101422.53
2022-08-29T17:18:55.230Z,101420.25
2022-08-29T17:21:27.137Z,101417.06
2022-08-29T17:23:59.467Z,101413.22
2022-08-29T17:26:31.213Z,101419.22
2022-08-29T17:29:03.757Z,101413.88
2022-08-29T17:31:38.883Z,101424.81
2022-08-29T17:34:11.472Z,101430.66
2022-08-29T17:36:44.129Z,101421.31
2022-08-29T17:39:15.430Z,101424.25
2022-08-29T17:41:52.045Z,101420.31
2022-08-29T17:44:24.549Z,101427.66
2022-08-29T17:46:55.910Z,101422.56
2022-08-29T17:49:29.927Z,101435.50
2022-08-29T17:52:01.539Z,101425.88
2022-08-29T17:54:32.841Z,101414.94
2022-08-29T17:57:05.400Z,101424.22
2022-08-29T17:59:37.322Z,101433.13
2022-08-29T18:02:09.558Z,101433.41
2022-08-29T18:04:40.945Z,101433.69
2022-08-29T18:07:12.381Z,101425.13
2022-08-29T18:09:43.782Z,101427.22
2022-08-29T18:12:15.988Z,101435.53
2022-08-29T18:14:47.407Z,101425.28
2022-08-29T18:17:18.708Z,101438.94
2022-08-29T18:19:50.002Z,101441.06
2022-08-29T18:22:21.327Z,101443.25
2022-08-29T18:24:53.191Z,101457.03
2022-08-29T18:27:26.966Z,101448.38
2022-08-29T18:29:58.271Z,101454.13
2022-08-29T18:32:36.500Z,101442.88
2022-08-29T18:35:09.629Z,101463.50
2022-08-29T18:37:41.060Z,101461.28
2022-08-29T18:40:12.492Z,101472.03
2022-08-29T18:42:44.262Z,101472.34
2022-08-29T18:45:16.053Z,101483.22
2022-08-29T18:47:47.490Z,101476.38
2022-08-29T18:50:33.998Z,101474.81
2022-08-29T18:53:05.253Z,101482.00
2022-08-29T18:55:38.646Z,101482.38
2022-08-29T18:58:11.112Z,101481.69
2022-08-29T19:00:43.183Z,101468.59
2022-08-29T19:03:14.731Z,101468.03
2022-08-29T19:05:49.766Z,101474.63
2022-08-29T19:08:24.692Z,101479.19
2022-08-29T19:10:56.154Z,101479.50
2022-08-29T19:13:30.713Z,101469.97
2022-08-29T19:16:04.629Z,101477.34
2022-08-29T19:18:36.066Z,101488.09
2022-08-29T19:21:07.421Z,101480.34
2022-08-29T19:23:42.769Z,101475.00
2022-08-29T19:26:28.165Z,101479.63
2022-08-29T19:29:02.648Z,101486.09
2022-08-29T19:31:34.021Z,101488.94
2022-08-29T19:34:06.162Z,101481.22
2022-08-29T19:36:39.353Z,101473.50
2022-08-29T19:39:10.956Z,101485.81
2022-08-29T19:41:42.386Z,101481.53
2022-08-29T19:44:14.475Z,101474.75
2022-08-29T19:46:49.236Z,101481.06
2022-08-29T19:49:21.126Z,101480.28
2022-08-29T19:51:52.497Z,101480.53
2022-08-29T19:54:23.935Z,101494.94
2022-08-29T19:56:55.247Z,101488.94
2022-08-29T19:59:26.638Z,101491.69
2022-08-29T20:01:58.970Z,101484.75
2022-08-29T20:04:31.996Z,101490.16
2022-08-29T20:07:05.228Z,101495.81
2022-08-29T20:09:36.546Z,101487.16
2022-08-29T20:12:09.948Z,101488.22
2022-08-29T20:14:41.797Z,101493.84
2022-08-29T20:17:13.244Z,101501.97
2022-08-29T20:19:44.565Z,101493.34
2022-08-29T20:22:16.374Z,101504.13
2022-08-29T20:24:51.950Z,101496.41
2022-08-29T20:27:24.065Z,101492.88
2022-08-29T20:29:55.373Z,101501.13
2022-08-29T20:32:26.724Z,101505.69
2022-08-29T20:34:58.078Z,101508.41
2022-08-29T20:37:29.723Z,101509.47
2022-08-29T20:40:01.151Z,101502.44
2022-08-29T20:42:32.570Z,101506.03
2022-08-29T20:45:04.201Z,101516.69
2022-08-29T20:47:35.794Z,101509.72
2022-08-29T20:50:10.105Z,101498.16
2022-08-29T20:52:41.434Z,101521.28
2022-08-29T20:55:13.038Z,101514.22
2022-08-29T20:57:44.386Z,101516.94
2022-08-29T21:00:16.041Z,101527.69
2022-08-29T21:03:06.191Z,101528.69
2022-08-29T21:05:43.713Z,101526.94
2022-08-29T21:08:20.578Z,101522.56
2022-08-29T21:10:55.047Z,101529.75
2022-08-29T21:13:26.397Z,101526.28
2022-08-29T21:15:58.976Z,101525.56
2022-08-29T21:18:31.317Z,101528.22
2022-08-29T21:21:02.714Z,101523.03
2022-08-29T21:23:34.204Z,101527.56
2022-08-29T21:26:05.716Z,101541.84
2022-08-29T21:28:38.025Z,101542.88
2022-08-29T21:31:13.487Z,101547.38
2022-08-29T21:33:45.469Z,101532.34
2022-08-29T21:36:19.646Z,101537.78
2022-08-29T21:38:54.072Z,101533.38
2022-08-29T21:41:28.152Z,101528.22
2022-08-29T21:43:59.873Z,101528.28
2022-08-29T21:46:34.327Z,101533.59
2022-08-29T21:49:07.023Z,101534.56
2022-08-29T21:51:39.216Z,101538.19
2022-08-29T21:54:13.698Z,101530.19
2022-08-29T21:56:46.959Z,101540.91
2022-08-29T21:59:20.320Z,101530.19
2022-08-29T22:01:53.278Z,101537.28
2022-08-29T22:04:28.862Z,101531.03
2022-08-29T22:07:00.662Z,101537.97
2022-08-29T22:09:33.302Z,101539.66
2022-08-29T22:12:04.907Z,101524.59
2022-08-29T22:14:54.769Z,101528.91
2022-08-29T22:17:26.063Z,101537.91
2022-08-29T22:19:57.393Z,101523.91
2022-08-29T22:22:28.721Z,101531.84
2022-08-29T22:25:00.025Z,101531.97
2022-08-29T22:27:32.292Z,101531.13
2022-08-29T22:30:05.920Z,101535.59
2022-08-29T22:32:37.912Z,101543.59
2022-08-29T22:35:13.083Z,101533.78
2022-08-29T22:37:45.738Z,101544.28
2022-08-29T22:40:19.425Z,101529.06
2022-08-29T22:42:51.032Z,101529.00
2022-08-29T22:45:22.485Z,101535.06
2022-08-29T22:47:53.890Z,101541.25
2022-08-29T22:50:25.749Z,101538.56
2022-08-29T22:52:59.078Z,101538.47
2022-08-29T22:58:01.713Z,101538.28
2022-08-29T23:00:33.696Z,101537.28
2022-08-29T23:03:05.135Z,101539.81
2022-08-29T23:05:36.493Z,101532.63
2022-08-29T23:08:08.065Z,101528.91
2022-08-29T23:10:39.418Z,101538.47
2022-08-29T23:13:11.762Z,101532.97
2022-08-29T23:15:43.203Z,101534.56
2022-08-29T23:18:14.591Z,101537.06
2022-08-29T23:20:46.905Z,101529.88
2022-08-29T23:23:18.331Z,101534.13
2022-08-29T23:25:49.758Z,101535.81
2022-08-29T23:28:21.072Z,101535.81
2022-08-29T23:30:52.456Z,101542.94
2022-08-29T23:33:25.878Z,101533.97
2022-08-29T23:35:57.207Z,101536.63
2022-08-29T23:38:28.526Z,101523.25
2022-08-29T23:41:00.904Z,101526.59
2022-08-29T23:43:36.917Z,101530.13
2022-08-29T23:46:08.833Z,101538.81
2022-08-29T23:48:40.295Z,101542.34
2022-08-29T23:51:14.505Z,101539.66
2022-08-29T23:53:46.325Z,101542.25
2022-08-29T23:56:20.397Z,101532.47
2022-08-29T23:58:54.792Z,101536.81
